עמוד ראשי
METAR-TAF:

METAR-TAF

שדות תעופה :

Cordova, אלסקה, ארצות הברית

קו רוחב: 60-29-30N, קו אורך: 145-28-40W, גובה: 13מטר

תצפית מזג אוויר נוכחית

הדו"ח נערך לפני 1 שעות ו 11דקות, בשעה 14:53 UTC
רוח 4קשר מכיוון צפון/צפון-מזרח
טמפרטורת 11 צלסיוס
לחות 71%
לחץ 1019 hPa
ראות: 16.1קילומטר
מעט עננים בגובה 1200רגל
מעונן בגובה 2900רגל

METAR: PACV 191453Z 03004KT 10SM FEW012 OVC029 11/06 A3008 RMK AO2 SLP185 T01060061 51001 $

זמן: 08:04 (16:04 UTC)

תחזית

הדו"ח נערך לפני 4 שעות ו 22דקות, בשעה 11:42 UTC
תחזית בתוקף מ 19 ב 12 UTC עד 20 ב 12 UTC
רוח 2קשר עם כיוונים משתנים
ראות: 10קילומטר
עננים פזורים בגובה 1200רגל
מעונן בגובה 2500רגל
זמנית מ -
19 ב 14 UTC עד 19 ב 18 UTC
עננים בינוניים בגובה 900רגל
מ 19 ב 2200UTC
רוח 8קשר מכיוון דרום/דרום-מערב
ראות: 10קילומטר
עננים פזורים בגובה 2500רגל
עננים בינוניים בגובה 3500רגל
מ 20 ב 0600UTC
רוח 2קשר עם כיוונים משתנים
ראות: 10קילומטר
מעט עננים בגובה 1000רגל
עננים בינוניים בגובה 2500רגל

TAF: PACV 191142Z 1912/2012 VRB02KT P6SM SCT012 OVC025 TEMPO 1914/1918 BKN009 FM192200 20008KT P6SM SCT025 BKN035 FM200600 VRB02KT P6SM FEW010 BKN025

תצפיות ותחזיות מזג אוויר לגבי יותר מ- 4,000 שדות תעופה ברחבי העולם. דוחות METAR ו- TAF.

התחנות הזמינות מסומנות בנקודות צהובות ואדומות על גבי המפה.

העבר את העכבר לנקודה הצבעונית על מנת לראות את שם התחנה.

לאחר מכן, לחץ כדי לראות את תוכן ואת תחזיות מזג האוויר.

כדי לשנות את המפה: לחץ על הכפתורים הירוקים עם הפלוס השחור כדי להתקרב; על הכפתור הירוק עם המקף כדי להתרחק; או בחיצים הירוקים למפות סמוכות.


METAR-TAF: